createdAt,value
2022-12-11T00:01:21.643Z,28.60
2022-12-11T00:03:50.375Z,28.20
2022-12-11T00:06:23.284Z,51.70
2022-12-11T00:08:54.464Z,30.80
2022-12-11T00:11:24.023Z,40.30
2022-12-11T00:13:52.656Z,27.80
2022-12-11T00:16:26.501Z,31.20
2022-12-11T00:18:56.047Z,30.10
2022-12-11T00:21:24.649Z,28.30
2022-12-11T00:23:53.328Z,39.20
2022-12-11T00:26:21.920Z,41.90
2022-12-11T00:28:55.446Z,38.70
2022-12-11T00:31:24.661Z,38.70
2022-12-11T00:33:53.384Z,22.30
2022-12-11T00:36:26.355Z,35.40
2022-12-11T00:38:55.567Z,31.60
2022-12-11T00:41:24.761Z,29.00
2022-12-11T00:43:53.480Z,29.40
2022-12-11T00:46:22.347Z,27.10
2022-12-11T00:48:51.363Z,30.70
2022-12-11T00:51:19.985Z,28.50
2022-12-11T00:53:48.592Z,39.10
2022-12-11T00:56:20.589Z,62.50
2022-12-11T00:58:50.408Z,32.90
2022-12-11T01:01:23.030Z,25.10
2022-12-11T01:03:52.313Z,24.60
2022-12-11T01:06:24.641Z,29.90
2022-12-11T01:09:12.074Z,28.60
2022-12-11T01:11:42.793Z,42.20
2022-12-11T01:14:12.874Z,40.00
2022-12-11T01:16:41.613Z,30.70
2022-12-11T01:19:10.443Z,31.20
2022-12-11T01:21:39.192Z,25.90
2022-12-11T01:24:07.806Z,21.60
2022-12-11T01:26:36.876Z,21.40
2022-12-11T01:29:05.481Z,27.40
2022-12-11T01:31:34.521Z,33.40
2022-12-11T01:34:03.214Z,34.90
2022-12-11T01:36:31.910Z,27.60
2022-12-11T01:39:00.769Z,25.90
2022-12-11T01:41:29.562Z,30.10
2022-12-11T01:44:15.638Z,29.60
2022-12-11T01:46:44.353Z,24.10
2022-12-11T01:49:15.425Z,32.30
2022-12-11T01:51:56.133Z,21.70
2022-12-11T01:54:26.751Z,27.70
2022-12-11T01:57:01.376Z,25.40
2022-12-11T01:59:34.443Z,27.00
2022-12-11T02:02:15.496Z,25.50
2022-12-11T02:04:46.305Z,26.10
2022-12-11T02:07:16.233Z,26.50
2022-12-11T02:09:48.193Z,21.80
2022-12-11T02:12:50.242Z,26.10
2022-12-11T02:15:36.966Z,28.80
2022-12-11T02:18:45.007Z,27.60
2022-12-11T02:21:28.932Z,26.70
2022-12-11T02:24:31.531Z,18.40
2022-12-11T02:27:20.862Z,26.30
2022-12-11T02:30:08.498Z,23.10
2022-12-11T02:32:58.028Z,19.00
2022-12-11T02:35:40.082Z,24.40
2022-12-11T02:38:20.034Z,27.80
2022-12-11T02:40:52.109Z,23.10
2022-12-11T02:43:23.841Z,26.60
2022-12-11T02:45:54.218Z,30.30
2022-12-11T02:48:24.589Z,32.50
2022-12-11T02:50:58.507Z,24.60
2022-12-11T02:53:31.520Z,25.00
2022-12-11T02:56:12.565Z,27.30
2022-12-11T02:58:55.321Z,28.50
2022-12-11T03:01:28.208Z,34.30
2022-12-11T03:03:58.675Z,28.80
2022-12-11T03:06:36.563Z,32.90
2022-12-11T03:09:09.998Z,31.90
2022-12-11T03:11:38.633Z,29.00
2022-12-11T03:14:08.529Z,36.90
2022-12-11T03:16:43.355Z,32.50
2022-12-11T03:19:38.720Z,30.80
2022-12-11T03:22:22.376Z,28.40
2022-12-11T03:25:34.716Z,32.40
2022-12-11T03:28:19.562Z,27.40
2022-12-11T03:30:51.605Z,26.70
2022-12-11T03:33:33.164Z,29.10
2022-12-11T03:36:10.830Z,35.10
2022-12-11T03:38:51.219Z,32.20
2022-12-11T03:41:24.329Z,32.60
2022-12-11T03:43:56.479Z,34.60
2022-12-11T03:46:32.164Z,35.80
2022-12-11T03:49:07.889Z,33.50
2022-12-11T03:51:37.255Z,29.30
2022-12-11T03:54:07.505Z,30.10
2022-12-11T03:56:39.824Z,25.60
2022-12-11T03:59:09.041Z,29.10
2022-12-11T04:01:37.768Z,27.50
2022-12-11T04:04:06.538Z,25.50
2022-12-11T04:06:35.226Z,24.70
2022-12-11T04:09:03.999Z,24.50
2022-12-11T04:11:35.217Z,23.90
2022-12-11T04:14:29.740Z,26.40
2022-12-11T04:17:01.016Z,25.00
2022-12-11T04:19:47.830Z,25.10
2022-12-11T04:22:37.461Z,26.80
2022-12-11T04:25:08.163Z,25.00
2022-12-11T04:27:51.755Z,24.40
2022-12-11T04:30:26.073Z,23.00
2022-12-11T04:32:58.133Z,20.60
2022-12-11T04:35:26.699Z,22.90
2022-12-11T04:37:55.267Z,26.20
2022-12-11T04:40:23.929Z,28.50
2022-12-11T04:42:52.376Z,22.70
2022-12-11T04:45:20.924Z,25.20
2022-12-11T04:47:49.496Z,30.90
2022-12-11T04:50:18.730Z,34.10
2022-12-11T04:52:47.315Z,34.10
2022-12-11T04:55:15.896Z,31.90
2022-12-11T04:57:44.436Z,34.00
2022-12-11T05:00:14.236Z,31.30
2022-12-11T05:02:43.433Z,37.80
2022-12-11T05:05:12.475Z,31.10
2022-12-11T05:07:41.310Z,29.60
2022-12-11T05:10:10.486Z,28.70
2022-12-11T05:12:39.386Z,28.40
2022-12-11T05:15:08.829Z,28.20
2022-12-11T05:17:37.678Z,30.80
2022-12-11T05:20:07.474Z,22.70
2022-12-11T05:22:36.777Z,27.60
2022-12-11T05:25:06.706Z,26.40
2022-12-11T05:27:35.397Z,26.30
2022-12-11T05:30:04.677Z,30.10
2022-12-11T05:32:33.392Z,28.40
2022-12-11T05:35:02.047Z,25.70
2022-12-11T05:37:30.676Z,28.70
2022-12-11T05:39:59.385Z,30.40
2022-12-11T05:42:29.129Z,22.90
2022-12-11T05:44:58.111Z,23.40
2022-12-11T05:47:26.883Z,23.30
2022-12-11T05:49:55.748Z,23.90
2022-12-11T05:52:24.641Z,21.60
2022-12-11T05:57:24.580Z,22.20
2022-12-11T05:59:52.131Z,21.20
2022-12-11T06:02:20.488Z,23.40
2022-12-11T06:04:48.386Z,27.40
2022-12-11T06:07:15.727Z,21.60
2022-12-11T06:09:43.230Z,20.70
2022-12-11T06:12:10.742Z,21.00
2022-12-11T06:14:38.378Z,22.80
2022-12-11T06:17:05.918Z,16.80
2022-12-11T06:19:36.729Z,19.30
2022-12-11T06:22:04.812Z,19.10
2022-12-11T06:24:32.399Z,18.00
2022-12-11T06:26:59.783Z,16.50
2022-12-11T06:29:29.458Z,17.60
2022-12-11T06:31:56.964Z,16.80
2022-12-11T06:34:26.871Z,16.60
2022-12-11T06:36:54.353Z,15.80
2022-12-11T06:39:21.811Z,18.10
2022-12-11T06:41:49.444Z,15.40
2022-12-11T06:44:17.065Z,15.40
2022-12-11T06:46:44.639Z,12.40
2022-12-11T06:49:15.129Z,12.40
2022-12-11T06:51:42.554Z,12.50
2022-12-11T06:54:09.994Z,12.50
2022-12-11T06:56:37.375Z,11.30
2022-12-11T06:59:07.428Z,16.30
2022-12-11T07:01:35.736Z,11.80
2022-12-11T07:04:03.035Z,12.90
2022-12-11T07:06:30.862Z,14.60
2022-12-11T07:08:59.135Z,13.50
2022-12-11T07:11:26.356Z,16.90
2022-12-11T07:13:53.770Z,12.50
2022-12-11T07:16:21.156Z,11.30
2022-12-11T07:18:50.909Z,13.20
2022-12-11T07:21:19.845Z,11.30
2022-12-11T07:23:48.626Z,11.70
2022-12-11T07:26:19.513Z,10.10
2022-12-11T07:28:46.971Z,11.00
2022-12-11T07:31:19.800Z,11.20
2022-12-11T07:33:47.546Z,13.70
2022-12-11T07:36:20.087Z,11.00
2022-12-11T07:38:47.494Z,12.20
2022-12-11T07:41:16.006Z,12.10
2022-12-11T07:43:44.967Z,12.20
2022-12-11T07:46:18.462Z,11.30
2022-12-11T07:48:47.417Z,16.40
2022-12-11T07:51:26.037Z,13.20
2022-12-11T07:53:59.125Z,11.10
2022-12-11T07:56:28.491Z,11.80
2022-12-11T07:58:56.101Z,13.30
2022-12-11T08:01:26.809Z,10.80
2022-12-11T08:03:55.499Z,13.00
2022-12-11T08:06:32.008Z,13.00
2022-12-11T08:09:01.921Z,14.00
2022-12-11T08:11:29.574Z,10.90
2022-12-11T08:13:59.030Z,15.70
2022-12-11T08:16:26.602Z,12.80
2022-12-11T08:18:54.127Z,11.50
2022-12-11T08:21:24.929Z,11.30
2022-12-11T08:23:54.050Z,11.10
2022-12-11T08:26:28.852Z,14.80
2022-12-11T08:28:56.537Z,13.70
2022-12-11T08:31:24.512Z,19.50
2022-12-11T08:33:52.718Z,12.60
2022-12-11T08:36:22.548Z,14.40
2022-12-11T08:38:52.174Z,13.80
2022-12-11T08:41:23.934Z,12.30
2022-12-11T08:44:01.277Z,13.40
2022-12-11T08:46:32.009Z,12.10
2022-12-11T08:49:02.951Z,10.70
2022-12-11T08:51:32.688Z,12.20
2022-12-11T08:54:01.065Z,12.40
2022-12-11T08:56:29.567Z,13.60
2022-12-11T08:59:00.567Z,16.50
2022-12-11T09:01:28.910Z,12.00
2022-12-11T09:03:57.051Z,11.20
2022-12-11T09:06:28.427Z,11.20
2022-12-11T09:08:58.980Z,14.20
2022-12-11T09:11:30.590Z,12.00
2022-12-11T09:14:06.726Z,10.10
2022-12-11T09:16:39.916Z,11.40
2022-12-11T09:19:12.769Z,15.70
2022-12-11T09:21:41.467Z,16.80
2022-12-11T09:24:10.534Z,13.70
2022-12-11T09:26:38.777Z,19.10
2022-12-11T09:29:06.523Z,12.50
2022-12-11T09:31:36.754Z,16.40
2022-12-11T09:34:12.106Z,28.40
2022-12-11T09:36:41.738Z,21.60
2022-12-11T09:39:12.678Z,16.50
2022-12-11T09:41:46.734Z,20.40
2022-12-11T09:44:39.490Z,18.00
2022-12-11T09:47:32.556Z,17.60
2022-12-11T09:50:10.145Z,20.50
2022-12-11T09:52:52.852Z,19.20
2022-12-11T09:55:23.918Z,16.90
2022-12-11T09:58:11.692Z,18.00
2022-12-11T10:00:50.782Z,13.00
2022-12-11T10:03:51.733Z,21.00
2022-12-11T10:06:32.764Z,18.60
2022-12-11T10:09:19.431Z,12.80
2022-12-11T10:11:56.921Z,16.20
2022-12-11T10:14:33.360Z,12.90
2022-12-11T10:17:32.130Z,17.50
2022-12-11T10:20:38.813Z,15.70
2022-12-11T10:23:16.313Z,21.80
2022-12-11T10:26:06.678Z,23.70
2022-12-11T10:28:35.412Z,12.30
2022-12-11T10:31:30.314Z,19.10
2022-12-11T10:34:10.944Z,21.50
2022-12-11T10:36:41.393Z,14.00
2022-12-11T10:39:18.981Z,13.50
2022-12-11T10:41:49.850Z,24.80
2022-12-11T10:44:28.866Z,20.40
2022-12-11T10:47:12.027Z,22.40
2022-12-11T10:51:16.411Z,18.60
2022-12-11T10:54:02.646Z,23.20
2022-12-11T10:56:50.751Z,23.60
2022-12-11T10:59:37.813Z,24.40
2022-12-11T11:02:16.946Z,25.20
2022-12-11T11:04:45.867Z,23.90
2022-12-11T11:07:23.989Z,27.50
2022-12-11T11:10:16.486Z,27.20
2022-12-11T11:12:48.937Z,25.20
2022-12-11T11:15:29.656Z,30.20
2022-12-11T11:18:26.721Z,25.40
2022-12-11T11:20:55.999Z,27.40
2022-12-11T11:23:28.959Z,30.10
2022-12-11T11:26:01.098Z,24.10
2022-12-11T11:28:36.799Z,27.20
2022-12-11T11:31:13.967Z,30.40
2022-12-11T11:34:08.120Z,26.60
2022-12-11T11:39:45.448Z,25.20
2022-12-11T11:42:30.516Z,26.30
2022-12-11T11:45:35.800Z,24.00
2022-12-11T11:50:50.718Z,25.10
2022-12-11T11:53:38.316Z,25.10
2022-12-11T11:56:31.868Z,22.30
2022-12-11T11:59:13.191Z,25.80
2022-12-11T12:01:59.120Z,27.50
2022-12-11T12:04:35.055Z,28.70
2022-12-11T12:07:43.990Z,28.80
2022-12-11T12:10:48.414Z,31.70
2022-12-11T12:13:56.095Z,27.20
2022-12-11T12:16:56.395Z,25.10
2022-12-11T12:20:17.814Z,26.70
2022-12-11T12:23:04.385Z,24.80
2022-12-11T12:26:05.690Z,23.60
2022-12-11T12:29:02.100Z,28.80
2022-12-11T12:31:49.470Z,25.50
2022-12-11T12:34:33.362Z,21.40
2022-12-11T12:37:10.917Z,24.10
2022-12-11T12:40:07.776Z,26.00
2022-12-11T12:42:49.940Z,18.10
2022-12-11T12:45:44.666Z,18.90
2022-12-11T12:48:13.263Z,15.30
2022-12-11T12:50:48.520Z,24.40
2022-12-11T12:53:26.536Z,20.20
2022-12-11T12:55:56.894Z,20.60
2022-12-11T12:58:29.545Z,22.60
2022-12-11T13:01:20.770Z,25.80
2022-12-11T13:04:03.737Z,21.10
